createdAt,value
2022-08-03T00:02:03.360Z,100
2022-08-03T00:07:06.195Z,100
2022-08-03T00:12:11.664Z,100
2022-08-03T00:17:17.102Z,100
2022-08-03T00:22:19.982Z,100
2022-08-03T00:32:25.285Z,100
2022-08-03T00:37:40.542Z,100
2022-08-03T00:42:30.738Z,100
2022-08-03T00:47:33.423Z,100
2022-08-03T00:52:35.904Z,100
2022-08-03T01:02:41.182Z,100
2022-08-03T01:12:49.400Z,100
2022-08-03T01:17:52.201Z,100
2022-08-03T01:22:54.858Z,100
2022-08-03T01:33:01.757Z,100
2022-08-03T01:38:05.654Z,100
2022-08-03T01:43:08.302Z,100
2022-08-03T01:48:13.852Z,100
2022-08-03T01:53:16.582Z,100
2022-08-03T01:58:19.519Z,100
2022-08-03T02:03:22.053Z,100
2022-08-03T02:08:24.873Z,100
2022-08-03T02:13:27.669Z,100
2022-08-03T02:18:33.157Z,100
2022-08-03T02:23:35.797Z,100
2022-08-03T02:28:38.542Z,100
2022-08-03T02:33:41.242Z,100
2022-08-03T02:38:43.994Z,100
2022-08-03T02:44:05.797Z,100
2022-08-03T02:58:54.768Z,100
2022-08-03T03:03:57.487Z,100
2022-08-03T03:09:00.215Z,100
2022-08-03T03:19:05.552Z,100
2022-08-03T03:24:08.246Z,100
2022-08-03T03:29:11.039Z,100
2022-08-03T03:39:16.276Z,100
2022-08-03T03:49:21.421Z,100
2022-08-03T03:54:25.415Z,100
2022-08-03T03:59:27.036Z,100
2022-08-03T04:09:32.410Z,100
2022-08-03T04:14:35.506Z,99.58789
2022-08-03T04:19:38.238Z,94.29102
2022-08-03T04:24:41.200Z,89.7373
2022-08-03T04:29:44.872Z,89.22949
2022-08-03T04:39:49.471Z,85.6748
2022-08-03T04:49:55.148Z,79.53613
2022-08-03T05:00:03.326Z,75.66992
2022-08-03T05:10:10.184Z,68.58203
2022-08-03T05:15:09.217Z,65.00879
2022-08-03T05:20:12.097Z,62.7373
2022-08-03T05:30:26.614Z,60.39941
2022-08-03T05:35:56.414Z,59.05566
2022-08-03T05:40:26.799Z,55.70313
2022-08-03T05:50:31.794Z,53.61816
2022-08-03T05:55:34.503Z,53.65625
2022-08-03T06:00:37.386Z,50.9375
2022-08-03T06:05:43.355Z,48.24609
2022-08-03T06:10:43.155Z,46.72168
2022-08-03T06:15:45.955Z,45.91504
2022-08-03T06:20:49.252Z,44.99414
2022-08-03T06:25:51.289Z,44.47168
2022-08-03T06:30:53.991Z,44.76465
2022-08-03T06:35:56.562Z,44.89355
2022-08-03T06:51:04.906Z,42.83008
2022-08-03T06:56:07.748Z,40.4668
2022-08-03T07:06:13.564Z,39.7168
2022-08-03T07:11:16.277Z,39.61621
2022-08-03T07:16:27.446Z,40.81934
2022-08-03T07:21:30.276Z,39.17383
2022-08-03T07:26:33.160Z,42.14746
2022-08-03T07:31:36.185Z,40.15723
2022-08-03T07:36:39.066Z,38.9248
2022-08-03T07:41:41.882Z,37.91211
2022-08-03T07:56:50.162Z,37.2168
2022-08-03T08:01:52.859Z,37.09473
2022-08-03T08:07:04.446Z,36.50879
2022-08-03T08:12:07.560Z,34.69434
2022-08-03T08:17:10.059Z,36.57715
2022-08-03T08:22:15.593Z,34.23145
2022-08-03T08:32:21.061Z,33.61133
2022-08-03T08:37:23.794Z,33.31641
2022-08-03T08:42:26.536Z,33.44531
2022-08-03T08:47:29.222Z,32.43555
2022-08-03T08:52:32.082Z,32.50684
2022-08-03T08:57:42.613Z,31.0127
2022-08-03T09:07:40.344Z,30.83203
2022-08-03T09:17:50.466Z,30.82129
2022-08-03T09:22:48.639Z,32.1123
2022-08-03T09:27:51.327Z,30.95801
2022-08-03T09:32:54.029Z,31.62305
2022-08-03T09:38:12.416Z,30.36426
2022-08-03T09:53:05.502Z,31.38574
2022-08-03T09:58:08.125Z,31.95996
2022-08-03T10:03:11.018Z,30.10254
2022-08-03T10:08:14.143Z,29.54395
2022-08-03T10:13:16.813Z,31.41016
2022-08-03T10:23:22.417Z,30.9668
2022-08-03T10:33:49.357Z,31.58203
2022-08-03T10:43:33.926Z,29.27051
2022-08-03T10:48:36.818Z,29.64648
2022-08-03T10:53:39.149Z,30.53906
2022-08-03T10:58:53.175Z,29.42773
2022-08-03T11:03:45.336Z,28.06543
2022-08-03T11:08:48.248Z,27.59766
2022-08-03T11:13:50.957Z,28.03125
2022-08-03T11:18:53.907Z,29.24512
2022-08-03T11:24:02.244Z,28.37598
2022-08-03T11:28:58.933Z,27.98242
2022-08-03T11:39:04.415Z,28.54102
2022-08-03T11:44:07.338Z,27.85742
2022-08-03T11:49:11.289Z,28.70605
2022-08-03T11:54:12.873Z,27.7666
2022-08-03T11:59:55.439Z,30.07422
2022-08-03T12:04:58.042Z,30.21777
2022-08-03T12:10:00.628Z,30.77441
2022-08-03T12:15:03.531Z,30.9541
2022-08-03T12:20:06.013Z,30.89941
2022-08-03T12:25:08.455Z,30.43848
2022-08-03T12:30:11.096Z,30.38867
2022-08-03T12:40:20.093Z,30.65527
2022-08-03T12:45:19.865Z,31.05957
2022-08-03T12:50:22.521Z,30.88672
2022-08-03T12:55:24.801Z,32.51465
2022-08-03T13:05:36.693Z,31.48242
2022-08-03T13:10:39.226Z,31.90918
2022-08-03T13:15:47.567Z,32.51855
2022-08-03T13:20:44.522Z,32.5127
2022-08-03T13:25:55.440Z,32.91406
2022-08-03T13:30:49.515Z,33.05664
2022-08-03T13:40:54.891Z,34.41211
2022-08-03T13:45:58.083Z,33.36328
2022-08-03T13:51:05.168Z,33.76758
2022-08-03T13:56:03.455Z,34.05469
2022-08-03T14:01:06.531Z,33.78809
2022-08-03T14:06:15.656Z,33.32227
2022-08-03T14:11:18.501Z,33.49316
2022-08-03T14:26:26.944Z,34.51367
2022-08-03T14:32:10.632Z,34.47754
2022-08-03T14:36:32.575Z,34.9209
2022-08-03T14:41:35.191Z,34.89941
2022-08-03T14:46:38.412Z,34.13086
2022-08-03T14:51:41.420Z,33.84375
2022-08-03T15:02:03.771Z,34.24707
2022-08-03T15:06:51.233Z,33.11523
2022-08-03T15:11:52.686Z,34.08691
2022-08-03T15:16:55.313Z,33.18555
2022-08-03T15:27:06.351Z,34.20703
2022-08-03T15:32:09.373Z,34.9502
2022-08-03T15:37:15.216Z,34.91211
2022-08-03T15:47:15.063Z,34.0791
2022-08-03T15:52:17.794Z,35.08789
2022-08-03T16:03:18.625Z,34.3125
2022-08-03T16:13:23.747Z,34.75977
2022-08-03T16:18:29.245Z,34.37891
2022-08-03T16:23:32.126Z,34.47168
2022-08-03T16:28:34.685Z,34.8877
2022-08-03T16:33:37.296Z,35.15723
2022-08-03T16:38:40.201Z,35.4082
2022-08-03T16:43:42.735Z,35.49414
2022-08-03T16:48:45.417Z,35.98145
2022-08-03T16:58:50.899Z,37.18945
2022-08-03T17:13:58.915Z,36.3584
2022-08-03T17:19:01.931Z,36.4082
2022-08-03T17:29:11.078Z,37.41406
2022-08-03T17:44:30.210Z,38.7334
2022-08-03T17:49:23.846Z,37.93555
2022-08-03T18:04:29.572Z,39.96875
2022-08-03T18:10:03.082Z,40.07031
2022-08-03T18:14:37.039Z,41.0498
2022-08-03T18:34:53.270Z,44.27246
2022-08-03T18:39:52.923Z,45.45508
2022-08-03T18:44:56.060Z,47.24805
2022-08-03T18:55:01.126Z,47.19824
2022-08-03T19:00:00.982Z,49.09277
2022-08-03T19:05:03.653Z,50.12012
2022-08-03T19:10:06.262Z,51.29395
2022-08-03T19:15:10.317Z,53.25195
2022-08-03T19:20:11.715Z,54.7793
2022-08-03T19:30:25.914Z,58.92188
2022-08-03T19:35:47.056Z,60.23828
2022-08-03T19:40:22.903Z,62.81934
2022-08-03T19:45:52.762Z,67.90527
2022-08-03T19:50:28.374Z,70.53516
2022-08-03T19:55:32.216Z,70.43652
2022-08-03T20:00:37.114Z,71.04492
2022-08-03T20:05:45.209Z,71.55664
2022-08-03T20:10:43.969Z,75.93652
2022-08-03T20:15:46.565Z,79.9668
2022-08-03T20:30:54.167Z,79.96191
2022-08-03T20:41:00.080Z,81.92871
2022-08-03T20:56:07.905Z,94.79004
2022-08-03T21:01:10.706Z,96.51172
2022-08-03T21:06:14.929Z,93.87207
2022-08-03T21:11:16.444Z,96.58984
2022-08-03T21:16:19.136Z,93.75586
2022-08-03T21:21:21.535Z,92.50488
2022-08-03T21:31:29.621Z,91.93066
2022-08-03T21:41:37.847Z,99.09766
2022-08-03T21:46:40.522Z,99.97266
2022-08-03T22:07:46.632Z,100
2022-08-03T22:17:54.427Z,100
2022-08-03T22:22:55.665Z,100
2022-08-03T22:27:57.367Z,100
2022-08-03T22:33:00.017Z,100
2022-08-03T22:38:02.590Z,100
2022-08-03T22:43:05.985Z,100
2022-08-03T22:53:11.194Z,100
2022-08-03T22:58:13.728Z,100
2022-08-03T23:03:16.273Z,100
2022-08-03T23:08:18.999Z,100
2022-08-03T23:18:24.814Z,100
2022-08-03T23:23:30.406Z,100
2022-08-03T23:28:32.932Z,100
2022-08-03T23:33:35.464Z,100
2022-08-03T23:38:38.062Z,100
2022-08-03T23:48:44.211Z,100
2022-08-03T23:53:46.775Z,100
2022-08-03T23:58:50.157Z,100
